Accueil
METAR-TAF:

METAR-TAF

Aéroports :

Sabadell, Espagne

latitude: 41-31N, longitude: 002-06E, altitude: 250 m

Observation

Le bulletin a été fait il y a 33 minutes, à 13:00 UTC
Vent 6 kt de sud/sud-ouest, variant entre sud/sud-est et ouest
Température 12°C
Humidité 47%
Pression 1008 hPa
Visibilité 10 km ou plus
pas de nuages en-dessous de 1500 mètres et pas de cumulonimbus.

METAR: LELL 031300Z 20006KT 160V270 CAVOK 12/01 Q1008

Heure: 14:33 (13:33 UTC)

Prévision

Le bulletin a été fait il y a 5 heures et 33 minutes, à 08:00 UTC
Prévision valable du 03 à 09 UTC au 04 à 09 UTC
Vent 3 kt de direction variable
Visibilité 10 km ou plus
Quelques nuages à une hauteur de 3000 ft

TAF: LELL 030800Z 0309/0409 VRB03KT 9999 FEW030 TX12/0313Z TN01/0406Z

Observations et prévisions météorologiques de plus de 4000 aéroports (messages METAR et TAF).

Les stations disponibles sont représentées par des disques jaunes et rouges sur la carte.

Passer la souris dessus pour voir le nom de la station.

Cliquer dessus pour voir les observations et prévisions météorologiques.

Pour changer de carte: cliquez sur les boutons verts avec une croix noire pour zoomer, sur le bouton vert avec un tiret pour effectuer un zoom arrière, ou sur les flèches vertes pour les cartes adjacentes.


METAR-TAF: